This is the latest recevied weather packets stored in our database for station/object G4MDP-13. If no packets are shown the sender has not sent any weather packets the latest 10 day(s).
| Time | Temp. | Humidity | Pressure | Rain* | Wind** | Luminosity | Snow |
|---|---|---|---|---|---|---|---|
| 1778171027 | 15.56° C | 57% | 1009.2 hPa | 0 mm | - | - | - |
| 1778170967 | 15.56° C | 56% | 1009.4 hPa | 0 mm | - | - | - |
| 1778170068 | 15.56° C | 57% | 1009.5 hPa | 0 mm | - | - | - |
| 1778169227 | 15.56° C | 57% | 1009.8 hPa | 0 mm | - | - | - |
| 1778169167 | 15.56° C | 57% | 1009.9 hPa | 0 mm | - | - | - |
| 1778168268 | 15° C | 55% | 1009.8 hPa | 0 mm | - | - | - |
| 1778167427 | 16.11° C | 55% | 1009.9 hPa | 0 mm | - | - | - |
| 1778167367 | 16.11° C | 54% | 1009.6 hPa | 0 mm | - | - | - |
| 1778166468 | 15.56° C | 56% | 1009.5 hPa | 0 mm | - | - | - |
| 1778165627 | 16.11° C | 51% | 1009.6 hPa | 0 mm | - | - | - |
| 1778165567 | 16.11° C | 51% | 1009.6 hPa | 0 mm | - | - | - |
| 1778164668 | 16.67° C | 51% | 1009.6 hPa | 0 mm | - | - | - |
| 1778163827 | 16.11° C | 52% | 1009.8 hPa | 0 mm | - | - | - |
| 1778163767 | 16.11° C | 52% | 1009.9 hPa | 0 mm | - | - | - |
| 1778162868 | 16.11° C | 54% | 1009.9 hPa | 0 mm | - | - | - |
| 1778162027 | 17.22° C | 51% | 1009.9 hPa | 0 mm | - | - | - |
| 1778161967 | 16.67° C | 53% | 1009.9 hPa | 0 mm | - | - | - |
| 1778161068 | 16.67° C | 53% | 1009.9 hPa | 0 mm | - | - | - |
| 1778160227 | 16.67° C | 55% | 1009.8 hPa | 0 mm | - | - | - |
| 1778160167 | 16.67° C | 55% | 1009.8 hPa | 0 mm | - | - | - |
| 1778159268 | 16.11° C | 55% | 1009.9 hPa | 0 mm | - | - | - |
| 1778158427 | 16.67° C | 53% | 1009.8 hPa | 0 mm | - | - | - |
| 1778158367 | 16.67° C | 53% | 1010 hPa | 0 mm | - | - | - |
| 1778157468 | 16.11° C | 53% | 1010.1 hPa | 0 mm | - | - | - |
| 1778156627 | 16.67° C | 52% | 1010 hPa | 0 mm | - | - | - |
* Rain latest hour (hover to see other rain measurements)
** Current wind speed in m/s (hover to see current wind gust speed)